Time;durP1;ratioP1;P1;durP2;ratioP2;P2;SDS_P1;SDS_P2;PMS_P1;PMS_P2;Temp;Humidity;BMP_temperature;BMP_pressure;BME280_temperature;BME280_humidity;BME280_pressure;Samples;Min_cycle;Max_cycle;Signal;HPM_P1;HPM_P2
2022/01/03 00:01:09;;;;;;;5.30;4.10;;;11.20;99.90;;;;;;5076608;28;20438;-70
2022/01/03 00:03:36;;;;;;;6.97;4.20;;;11.10;99.90;;;;;;5076444;28;20454;-69
2022/01/03 00:06:03;;;;;;;4.23;3.83;;;11.10;99.90;;;;;;5076170;28;20465;-70
2022/01/03 00:08:31;;;;;;;4.30;3.73;;;11.10;99.90;;;;;;5075574;28;20783;-70
2022/01/03 00:10:59;;;;;;;6.47;3.53;;;11.00;99.90;;;;;;5075550;28;20465;-70
2022/01/03 00:13:26;;;;;;;8.30;4.97;;;11.00;99.90;;;;;;5075874;28;20477;-75
2022/01/03 00:15:55;;;;;;;4.87;3.47;;;11.00;99.90;;;;;;5075622;28;20454;-70
2022/01/03 00:18:24;;;;;;;4.27;3.73;;;11.00;99.90;;;;;;5074881;28;20454;-70
2022/01/03 00:20:56;;;;;;;4.57;3.70;;;11.00;99.90;;;;;;5075488;28;20516;-70
2022/01/03 00:23:27;;;;;;;5.00;3.90;;;11.00;99.90;;;;;;5075364;28;20438;-70
2022/01/03 00:25:59;;;;;;;4.20;3.50;;;11.00;99.90;;;;;;5075174;28;20549;-69
2022/01/03 00:28:33;;;;;;;4.63;3.23;;;11.00;99.90;;;;;;5075408;28;20446;-70
2022/01/03 00:30:59;;;;;;;4.73;3.47;;;11.00;99.90;;;;;;5075091;28;20879;-69
2022/01/03 00:33:28;;;;;;;4.57;3.57;;;11.00;99.90;;;;;;5075882;28;20778;-69
2022/01/03 00:35:58;;;;;;;4.23;3.30;;;11.00;99.90;;;;;;5075508;28;20834;-70
2022/01/03 00:38:26;;;;;;;4.40;3.60;;;11.00;99.90;;;;;;5075288;28;20477;-71
2022/01/03 00:40:53;;;;;;;6.53;3.97;;;11.10;99.90;;;;;;5075366;28;20756;-70
2022/01/03 00:43:20;;;;;;;4.57;3.07;;;11.10;99.90;;;;;;5075471;28;20859;-70
2022/01/03 00:45:47;;;;;;;5.03;3.23;;;11.10;99.90;;;;;;5075291;28;20454;-70
2022/01/03 00:48:14;;;;;;;8.03;4.13;;;11.10;99.90;;;;;;5074778;28;20551;-70
2022/01/03 00:50:42;;;;;;;5.07;3.73;;;11.10;99.90;;;;;;5075131;28;20462;-70
2022/01/03 00:53:08;;;;;;;5.20;3.87;;;11.10;99.90;;;;;;5074854;28;20485;-70
2022/01/03 00:55:35;;;;;;;12.87;3.87;;;11.00;99.90;;;;;;5075534;28;20462;-71
2022/01/03 00:58:07;;;;;;;5.00;3.40;;;10.90;99.90;;;;;;5074800;28;20820;-71
2022/01/03 01:00:37;;;;;;;4.53;4.13;;;11.00;99.90;;;;;;5074776;28;20450;-71
2022/01/03 01:03:10;;;;;;;5.23;3.83;;;10.90;99.90;;;;;;5074900;28;20855;-71
2022/01/03 01:05:39;;;;;;;7.77;3.43;;;10.90;99.90;;;;;;5074844;28;20756;-70
2022/01/03 01:08:08;;;;;;;5.97;2.97;;;10.90;99.90;;;;;;5074239;28;20969;-71
2022/01/03 01:10:39;;;;;;;4.40;3.30;;;10.70;99.90;;;;;;5074690;28;20528;-71
2022/01/03 01:13:10;;;;;;;5.00;3.50;;;10.60;99.90;;;;;;5074649;28;20458;-71
2022/01/03 01:15:37;;;;;;;3.50;3.20;;;10.40;99.90;;;;;;5074692;28;20516;-71
2022/01/03 01:18:05;;;;;;;6.10;3.57;;;10.30;99.90;;;;;;5074760;28;20466;-69
2022/01/03 01:20:33;;;;;;;4.33;3.03;;;10.20;99.90;;;;;;5074144;28;20447;-70
2022/01/03 01:23:01;;;;;;;5.20;3.00;;;10.10;99.90;;;;;;5074296;28;20450;-70
2022/01/03 01:28:17;;;;;;;3.57;3.23;;;10.00;99.90;;;;;;5074557;28;20497;-70
2022/01/03 01:30:44;;;;;;;5.70;3.20;;;9.90;99.90;;;;;;5076937;28;20438;-70
2022/01/03 01:33:14;;;;;;;4.30;3.13;;;9.90;99.90;;;;;;5078331;28;20920;-70
2022/01/03 01:35:47;;;;;;;3.90;2.50;;;9.90;99.90;;;;;;5078648;28;20555;-71
2022/01/03 01:38:15;;;;;;;5.80;2.93;;;9.90;99.90;;;;;;5078685;28;20536;-71
2022/01/03 01:40:47;;;;;;;4.00;3.10;;;9.80;99.90;;;;;;5078182;28;20537;-71
2022/01/03 01:43:18;;;;;;;6.40;3.17;;;9.80;99.90;;;;;;5078493;28;20434;-71
2022/01/03 01:45:48;;;;;;;4.30;2.97;;;9.80;99.90;;;;;;5078489;28;20435;-71
2022/01/03 01:48:17;;;;;;;3.40;3.10;;;9.80;99.90;;;;;;5078391;28;20481;-71
2022/01/03 01:50:51;;;;;;;2.97;2.70;;;9.80;99.90;;;;;;5078518;28;20527;-71
2022/01/03 01:53:23;;;;;;;3.57;2.80;;;9.90;99.90;;;;;;5079290;28;20521;-71
2022/01/03 01:55:53;;;;;;;4.70;2.77;;;9.80;99.90;;;;;;5079130;28;20754;-71
2022/01/03 01:58:29;;;;;;;2.60;2.23;;;9.80;99.90;;;;;;5079004;28;20438;-71
2022/01/03 02:00:59;;;;;;;4.23;2.93;;;9.90;99.90;;;;;;5079469;28;20430;-71
2022/01/03 02:03:40;;;;;;;3.70;3.00;;;9.90;99.90;;;;;;5078737;28;20460;-71
2022/01/03 02:06:23;;;;;;;6.23;2.70;;;9.90;99.90;;;;;;5079871;28;20434;-71
2022/01/03 02:09:02;;;;;;;3.20;2.47;;;9.90;99.90;;;;;;5078367;28;20445;-70
2022/01/03 02:11:42;;;;;;;4.83;3.07;;;9.90;99.90;;;;;;5078499;28;20449;-70
2022/01/03 02:14:10;;;;;;;6.80;2.67;;;9.90;99.90;;;;;;5078287;28;20466;-72
2022/01/03 02:16:38;;;;;;;3.37;2.13;;;9.80;99.90;;;;;;5078977;28;20458;-72
2022/01/03 02:19:04;;;;;;;3.00;2.37;;;9.80;99.90;;;;;;5080256;28;20549;-71
2022/01/03 02:21:32;;;;;;;3.67;2.23;;;9.70;99.90;;;;;;5079567;28;20841;-71
2022/01/03 02:23:59;;;;;;;2.60;2.33;;;9.70;99.90;;;;;;5079052;28;20465;-70
2022/01/03 02:26:29;;;;;;;6.37;2.07;;;9.70;99.90;;;;;;5077856;28;20466;-71
2022/01/03 02:28:55;;;;;;;5.57;2.13;;;9.70;99.90;;;;;;5078021;28;20782;-70
2022/01/03 02:31:22;;;;;;;1.90;1.60;;;9.70;99.90;;;;;;5077762;28;20784;-70
2022/01/03 02:33:51;;;;;;;1.97;1.77;;;9.70;99.90;;;;;;5077385;28;20481;-70
2022/01/03 02:36:21;;;;;;;2.50;1.80;;;9.60;99.90;;;;;;5077734;28;20457;-70
2022/01/03 02:38:49;;;;;;;2.93;1.80;;;9.60;99.90;;;;;;5077781;28;20539;-70
2022/01/03 02:41:16;;;;;;;2.70;1.60;;;9.60;99.90;;;;;;5077201;28;20465;-70
2022/01/03 02:43:44;;;;;;;1.80;1.60;;;9.50;99.90;;;;;;5078460;28;20454;-70
2022/01/03 02:46:10;;;;;;;2.13;1.90;;;9.50;99.90;;;;;;5077473;28;20465;-70
2022/01/03 02:48:37;;;;;;;2.33;1.50;;;9.50;99.90;;;;;;5077053;28;20478;-71
2022/01/03 02:51:05;;;;;;;2.10;1.77;;;9.50;99.90;;;;;;5077366;28;20838;-70
2022/01/03 02:53:32;;;;;;;2.10;1.50;;;9.50;99.90;;;;;;5077210;28;20454;-70
2022/01/03 02:56:00;;;;;;;2.63;1.37;;;9.50;99.90;;;;;;5076868;28;20493;-69
2022/01/03 02:58:26;;;;;;;2.37;1.60;;;9.50;99.90;;;;;;5077087;28;20458;-70
2022/01/03 03:00:53;;;;;;;3.50;1.53;;;9.50;99.90;;;;;;5076644;28;20933;-70
2022/01/03 03:03:21;;;;;;;2.13;1.40;;;9.50;99.90;;;;;;5077175;28;20470;-70
2022/01/03 03:05:50;;;;;;;2.37;1.80;;;9.50;99.90;;;;;;5077313;28;20495;-70
2022/01/03 03:08:17;;;;;;;2.43;1.40;;;9.50;99.90;;;;;;5076874;28;20462;-70
2022/01/03 03:10:44;;;;;;;1.40;1.30;;;9.60;99.90;;;;;;5076429;28;20471;-71
2022/01/03 03:13:12;;;;;;;1.93;1.30;;;9.60;99.90;;;;;;5076867;28;20466;-71
2022/01/03 03:15:39;;;;;;;1.30;1.20;;;9.60;99.90;;;;;;5076953;28;20485;-71
2022/01/03 03:18:06;;;;;;;3.83;1.20;;;9.60;99.90;;;;;;5077116;28;20786;-71
2022/01/03 03:20:34;;;;;;;1.50;1.27;;;9.60;99.90;;;;;;5076770;28;20469;-71
2022/01/03 03:23:01;;;;;;;1.60;1.10;;;9.60;99.90;;;;;;5076792;28;20462;-71
2022/01/03 03:25:31;;;;;;;1.60;1.20;;;9.60;99.90;;;;;;5076599;28;20466;-71
2022/01/03 03:28:00;;;;;;;1.30;1.07;;;9.60;99.90;;;;;;5076720;28;20457;-70
2022/01/03 03:30:31;;;;;;;4.00;1.10;;;9.60;99.90;;;;;;5076650;28;20480;-70
2022/01/03 03:33:02;;;;;;;1.50;1.20;;;9.60;99.90;;;;;;5076952;28;20472;-70
2022/01/03 03:35:31;;;;;;;3.83;1.57;;;9.60;99.90;;;;;;5076466;28;20470;-70
2022/01/03 03:37:58;;;;;;;2.30;1.33;;;9.60;99.90;;;;;;5076256;28;20454;-71
2022/01/03 03:40:24;;;;;;;11.40;1.40;;;9.50;99.90;;;;;;5076302;28;20785;-69
2022/01/03 03:42:52;;;;;;;2.90;1.60;;;9.50;99.90;;;;;;5076109;28;20462;-70
2022/01/03 03:45:20;;;;;;;4.00;1.90;;;9.40;99.90;;;;;;5075918;28;20906;-70
2022/01/03 03:47:48;;;;;;;1.70;1.40;;;9.40;99.90;;;;;;5075846;28;20536;-70
2022/01/03 03:50:15;;;;;;;2.00;1.60;;;9.30;99.90;;;;;;5075587;28;20956;-71
2022/01/03 03:52:43;;;;;;;3.30;1.50;;;9.20;99.90;;;;;;5075604;28;20837;-70
2022/01/03 03:55:10;;;;;;;2.57;1.90;;;9.20;99.90;;;;;;5075379;28;20958;-70
2022/01/03 03:57:37;;;;;;;2.57;1.50;;;9.20;99.90;;;;;;5075856;28;20458;-70
2022/01/03 04:00:05;;;;;;;3.90;2.13;;;9.20;99.90;;;;;;5076274;28;20786;-70
2022/01/03 04:02:32;;;;;;;1.70;1.60;;;9.20;99.90;;;;;;5075802;28;20458;-71
2022/01/03 04:05:01;;;;;;;2.10;1.90;;;9.10;99.90;;;;;;5075613;28;20923;-70
2022/01/03 04:07:28;;;;;;;2.47;1.93;;;9.10;99.90;;;;;;5075847;28;20454;-70
2022/01/03 04:09:55;;;;;;;4.07;2.40;;;9.10;99.90;;;;;;5075325;28;20887;-70
2022/01/03 04:12:22;;;;;;;2.73;1.83;;;9.10;99.90;;;;;;5075758;28;20473;-70
2022/01/03 04:14:48;;;;;;;3.37;2.53;;;9.10;99.90;;;;;;5075563;28;20482;-71
2022/01/03 04:17:15;;;;;;;3.97;2.73;;;9.10;99.90;;;;;;5075589;28;20453;-71
2022/01/03 04:19:42;;;;;;;3.13;2.40;;;9.10;99.90;;;;;;5075487;28;20469;-70
2022/01/03 04:22:10;;;;;;;5.10;2.97;;;9.10;99.90;;;;;;5075534;28;20488;-70
2022/01/03 04:24:37;;;;;;;4.33;3.20;;;9.10;99.90;;;;;;5075415;28;20508;-70
2022/01/03 04:27:04;;;;;;;3.17;2.80;;;9.10;99.90;;;;;;5075375;28;20826;-69
2022/01/03 04:29:31;;;;;;;3.57;2.87;;;9.00;99.90;;;;;;5075505;28;20454;-70
2022/01/03 04:32:01;;;;;;;2.63;1.77;;;9.00;99.90;;;;;;5075160;28;20795;-69
2022/01/03 04:34:28;;;;;;;3.50;1.23;;;9.00;99.90;;;;;;5075159;28;20454;-69
2022/01/03 04:36:54;;;;;;;1.67;1.33;;;9.00;99.90;;;;;;5075002;28;20795;-70
2022/01/03 04:39:23;;;;;;;2.30;1.30;;;8.90;99.90;;;;;;5074976;28;20459;-71
2022/01/03 04:41:50;;;;;;;4.50;1.00;;;8.90;99.90;;;;;;5074880;28;20521;-70
2022/01/03 04:44:17;;;;;;;1.13;0.93;;;8.90;99.90;;;;;;5075303;28;20469;-70
2022/01/03 04:46:44;;;;;;;1.40;1.00;;;8.80;99.90;;;;;;5075454;28;20825;-70
2022/01/03 04:49:10;;;;;;;1.27;0.90;;;8.80;99.90;;;;;;5074910;28;20517;-70
2022/01/03 04:51:39;;;;;;;1.37;0.97;;;8.80;99.90;;;;;;5075530;28;20793;-70
2022/01/03 04:54:06;;;;;;;1.30;0.80;;;8.80;99.90;;;;;;5075615;28;20462;-70
2022/01/03 04:56:35;;;;;;;1.17;0.80;;;8.80;99.90;;;;;;5075545;28;20489;-70
2022/01/03 04:59:02;;;;;;;1.00;0.60;;;8.80;99.90;;;;;;5075350;28;20481;-71
2022/01/03 05:01:28;;;;;;;3.83;1.00;;;8.90;99.90;;;;;;5075192;28;20466;-70
2022/01/03 05:03:55;;;;;;;1.00;0.60;;;8.90;99.90;;;;;;5074887;28;20839;-69
2022/01/03 05:06:22;;;;;;;1.20;0.80;;;9.00;99.90;;;;;;5075001;28;20516;-72
2022/01/03 05:08:49;;;;;;;1.77;0.80;;;9.00;99.90;;;;;;5075692;28;20466;-71
2022/01/03 05:11:16;;;;;;;1.10;0.70;;;9.00;99.90;;;;;;5076549;28;20933;-71
2022/01/03 05:13:44;;;;;;;1.10;0.60;;;9.00;99.90;;;;;;5075994;28;20462;-70
2022/01/03 05:16:10;;;;;;;4.50;0.83;;;9.00;99.90;;;;;;5077161;28;20802;-70
2022/01/03 05:18:37;;;;;;;1.07;0.70;;;9.00;99.90;;;;;;5079738;28;20463;-71
2022/01/03 05:21:04;;;;;;;1.00;0.60;;;8.90;99.90;;;;;;5079610;28;20929;-70
2022/01/03 05:23:31;;;;;;;1.07;0.70;;;8.90;99.90;;;;;;5078599;28;20454;-71
2022/01/03 05:25:58;;;;;;;2.33;0.70;;;8.90;99.90;;;;;;5076677;28;20461;-71
2022/01/03 05:28:24;;;;;;;1.20;0.70;;;8.90;99.90;;;;;;5074765;28;20461;-70
2022/01/03 05:30:53;;;;;;;1.63;0.90;;;8.90;99.90;;;;;;5074902;28;20465;-70
2022/01/03 05:33:20;;;;;;;1.10;0.60;;;8.90;99.90;;;;;;5074579;28;20498;-70
2022/01/03 05:35:49;;;;;;;1.00;0.63;;;8.80;99.90;;;;;;5074472;28;20542;-70
2022/01/03 05:38:18;;;;;;;1.03;0.70;;;8.70;99.90;;;;;;5074534;28;20454;-70
2022/01/03 05:40:45;;;;;;;1.10;0.70;;;8.60;99.90;;;;;;5074115;28;20902;-70
2022/01/03 05:43:11;;;;;;;1.80;0.80;;;8.60;99.90;;;;;;5074437;28;20454;-70
2022/01/03 05:45:38;;;;;;;1.90;0.90;;;8.50;99.90;;;;;;5074319;28;20915;-70
2022/01/03 05:48:06;;;;;;;2.27;0.90;;;8.50;99.90;;;;;;5073750;28;20481;-70
2022/01/03 05:50:33;;;;;;;1.10;0.80;;;8.40;99.90;;;;;;5075716;28;20462;-70
2022/01/03 05:53:00;;;;;;;1.00;0.70;;;8.40;99.90;;;;;;5075509;28;20465;-70
2022/01/03 05:55:27;;;;;;;1.00;0.70;;;8.30;99.90;;;;;;5074033;28;20481;-70
2022/01/03 05:57:54;;;;;;;2.03;0.80;;;8.30;99.90;;;;;;5073873;28;20527;-71
2022/01/03 06:00:23;;;;;;;1.40;0.90;;;8.30;99.90;;;;;;5074303;28;20461;-71
2022/01/03 06:02:54;;;;;;;1.47;1.10;;;8.20;99.90;;;;;;5074268;28;20469;-71
2022/01/03 06:05:39;;;;;;;3.60;1.30;;;8.20;99.90;;;;;;5074322;28;20435;-71
2022/01/03 06:08:07;;;;;;;2.63;1.37;;;8.20;99.90;;;;;;5074158;28;20769;-71
2022/01/03 06:10:33;;;;;;;3.90;1.60;;;8.20;99.90;;;;;;5074218;28;20840;-71
2022/01/03 06:13:00;;;;;;;3.83;1.73;;;8.20;99.90;;;;;;5074293;28;20461;-71
2022/01/03 06:15:27;;;;;;;1.80;1.17;;;8.20;99.90;;;;;;5073924;28;20477;-71
2022/01/03 06:17:54;;;;;;;3.03;1.60;;;8.30;99.90;;;;;;5077750;28;20483;-71
2022/01/03 06:20:22;;;;;;;2.47;1.53;;;8.30;99.90;;;;;;5077992;28;20454;-72
2022/01/03 06:22:49;;;;;;;2.77;1.77;;;8.30;99.90;;;;;;5077327;28;20519;-72
2022/01/03 06:25:15;;;;;;;4.57;1.97;;;8.30;99.90;;;;;;5077785;28;20450;-71
2022/01/03 06:27:42;;;;;;;3.80;2.00;;;8.30;99.90;;;;;;5077811;28;20485;-71
2022/01/03 06:30:11;;;;;;;5.50;1.90;;;8.30;99.90;;;;;;5077526;28;20454;-72
2022/01/03 06:32:38;;;;;;;3.43;1.80;;;8.30;99.90;;;;;;5077789;28;20519;-71
2022/01/03 06:35:06;;;;;;;3.53;2.10;;;8.30;99.90;;;;;;5077604;28;20454;-74
2022/01/03 06:37:34;;;;;;;3.73;1.90;;;8.40;99.90;;;;;;5077660;28;20454;-73
2022/01/03 06:40:02;;;;;;;5.30;1.97;;;8.40;99.90;;;;;;5077206;28;20898;-72
2022/01/03 06:42:29;;;;;;;4.80;2.07;;;8.40;99.90;;;;;;5077862;28;20557;-72
2022/01/03 06:44:55;;;;;;;5.43;1.77;;;8.40;99.90;;;;;;5078513;28;20454;-72
2022/01/03 06:47:22;;;;;;;2.63;2.33;;;8.40;99.90;;;;;;5077685;28;20550;-72
2022/01/03 06:49:49;;;;;;;2.63;1.87;;;8.50;99.90;;;;;;5077892;28;20454;-71
2022/01/03 06:52:16;;;;;;;7.63;1.60;;;8.50;99.90;;;;;;5077642;28;20511;-72
2022/01/03 06:54:44;;;;;;;6.97;2.10;;;8.60;99.90;;;;;;5077330;28;20744;-71
2022/01/03 06:57:11;;;;;;;7.30;2.20;;;8.60;99.90;;;;;;5077925;28;20535;-72
2022/01/03 06:59:39;;;;;;;6.10;2.33;;;8.70;99.90;;;;;;5078208;28;20465;-71
2022/01/03 07:02:09;;;;;;;5.07;1.93;;;8.70;99.90;;;;;;5077413;28;20485;-71
2022/01/03 07:04:35;;;;;;;8.33;2.33;;;8.70;99.90;;;;;;5077323;28;20465;-72
2022/01/03 07:07:02;;;;;;;5.47;1.93;;;8.70;99.90;;;;;;5076969;28;20458;-71
2022/01/03 07:09:29;;;;;;;5.80;2.73;;;8.70;99.90;;;;;;5077902;28;20469;-71
2022/01/03 07:11:57;;;;;;;4.70;1.80;;;8.70;99.90;;;;;;5078003;28;20450;-72
2022/01/03 07:19:55;;;;;;;6.07;1.90;;;8.80;99.90;;;;;;5077213;28;20862;-70
2022/01/03 07:22:22;;;;;;;6.20;2.20;;;8.80;99.90;;;;;;5077386;28;20469;-71
2022/01/03 07:24:49;;;;;;;8.03;2.30;;;8.80;99.90;;;;;;5077217;28;20825;-72
2022/01/03 07:27:17;;;;;;;4.60;2.40;;;8.80;99.90;;;;;;5075758;28;20459;-72
2022/01/03 07:29:44;;;;;;;8.30;2.93;;;8.80;99.90;;;;;;5076632;28;20803;-72
2022/01/03 07:32:11;;;;;;;4.37;2.17;;;8.80;99.90;;;;;;5076776;28;20454;-71
2022/01/03 07:34:38;;;;;;;7.73;3.17;;;8.80;99.90;;;;;;5077354;28;20792;-72
2022/01/03 07:37:05;;;;;;;3.80;2.83;;;8.90;99.90;;;;;;5076248;28;20494;-71
2022/01/03 07:39:34;;;;;;;7.83;2.67;;;8.90;99.90;;;;;;5075981;28;20474;-71
2022/01/03 07:42:01;;;;;;;10.57;2.47;;;8.90;99.90;;;;;;5076463;28;20520;-70
2022/01/03 07:44:29;;;;;;;7.03;2.20;;;9.00;99.90;;;;;;5075924;28;20453;-71
2022/01/03 07:46:56;;;;;;;4.40;1.83;;;8.90;99.90;;;;;;5075928;28;20929;-71
2022/01/03 07:49:23;;;;;;;5.07;1.87;;;9.00;99.90;;;;;;5076372;28;20443;-71
2022/01/03 07:51:50;;;;;;;6.70;2.00;;;9.00;99.90;;;;;;5076600;28;20462;-71
2022/01/03 07:54:17;;;;;;;4.40;1.60;;;9.10;99.90;;;;;;5076783;28;20485;-71
2022/01/03 07:56:45;;;;;;;5.37;1.97;;;9.10;99.90;;;;;;5077800;28;20486;-71
2022/01/03 07:59:11;;;;;;;5.47;1.90;;;9.10;99.90;;;;;;5076131;28;20469;-71
2022/01/03 08:01:40;;;;;;;4.70;1.77;;;9.10;99.90;;;;;;5076366;28;20779;-71
2022/01/03 08:04:08;;;;;;;6.80;1.80;;;9.20;99.90;;;;;;5076331;28;20472;-71
2022/01/03 08:06:35;;;;;;;9.40;2.03;;;9.10;99.90;;;;;;5075984;28;20926;-72
2022/01/03 08:09:02;;;;;;;6.37;1.87;;;9.20;99.90;;;;;;5076364;28;20473;-70
2022/01/03 08:11:29;;;;;;;6.73;2.07;;;9.20;99.90;;;;;;5075694;28;20458;-70
2022/01/03 08:13:56;;;;;;;8.63;1.90;;;9.20;99.90;;;;;;5076722;28;20778;-69
2022/01/03 08:16:22;;;;;;;12.77;2.47;;;9.20;99.90;;;;;;5076139;28;20470;-70
2022/01/03 08:18:50;;;;;;;6.00;2.10;;;9.30;99.90;;;;;;5075845;28;20458;-71
2022/01/03 08:21:17;;;;;;;10.23;2.57;;;9.30;99.90;;;;;;5075641;28;20469;-70
2022/01/03 08:23:44;;;;;;;6.17;3.00;;;9.30;99.90;;;;;;5075694;28;20463;-70
2022/01/03 08:26:10;;;;;;;10.47;4.40;;;9.30;99.90;;;;;;5075582;28;20776;-71
2022/01/03 08:28:37;;;;;;;8.47;4.10;;;9.30;99.90;;;;;;5075742;28;20465;-71
2022/01/03 08:31:04;;;;;;;11.97;4.10;;;9.30;99.90;;;;;;5075277;28;20454;-70
2022/01/03 08:33:31;;;;;;;13.77;5.33;;;9.30;99.90;;;;;;5076693;28;20458;-70
2022/01/03 08:35:59;;;;;;;13.87;5.27;;;9.20;99.90;;;;;;5076140;28;20808;-71
2022/01/03 08:38:26;;;;;;;7.93;4.13;;;9.20;99.90;;;;;;5075882;28;20929;-71
2022/01/03 08:40:53;;;;;;;15.50;7.37;;;9.20;99.90;;;;;;5076250;28;20492;-70
2022/01/03 08:43:20;;;;;;;9.00;4.43;;;9.20;99.90;;;;;;5076515;28;20469;-70
2022/01/03 08:45:47;;;;;;;8.70;3.73;;;9.20;99.90;;;;;;5076917;28;20457;-70
2022/01/03 08:48:14;;;;;;;9.00;4.50;;;9.20;99.90;;;;;;5077819;28;20482;-70
2022/01/03 08:50:40;;;;;;;7.37;4.47;;;9.20;99.90;;;;;;5076452;28;20465;-70
2022/01/03 08:53:09;;;;;;;8.00;3.80;;;9.30;99.90;;;;;;5075896;28;20457;-70
2022/01/03 08:55:36;;;;;;;10.27;4.30;;;9.30;99.90;;;;;;5076116;28;20465;-71
2022/01/03 08:58:03;;;;;;;9.03;3.20;;;9.30;99.90;;;;;;5075396;28;20549;-69
2022/01/03 09:00:29;;;;;;;9.27;3.40;;;9.40;99.90;;;;;;5075001;28;20469;-70
2022/01/03 09:02:56;;;;;;;8.77;3.47;;;9.40;99.90;;;;;;5075394;28;20454;-71
2022/01/03 09:05:23;;;;;;;8.13;2.50;;;9.50;99.90;;;;;;5074983;28;20458;-70
2022/01/03 09:07:49;;;;;;;13.77;3.37;;;9.50;99.90;;;;;;5075108;28;20458;-69
2022/01/03 09:10:18;;;;;;;9.83;4.17;;;9.60;99.90;;;;;;5075256;28;20458;-69
2022/01/03 09:12:44;;;;;;;10.40;3.30;;;9.60;99.90;;;;;;5075505;28;20484;-70
2022/01/03 09:15:11;;;;;;;10.10;2.90;;;9.70;99.90;;;;;;5075329;28;20905;-69
2022/01/03 09:17:39;;;;;;;11.90;3.73;;;9.70;99.90;;;;;;5075345;28;20478;-70
2022/01/03 09:20:07;;;;;;;8.83;4.13;;;9.80;99.90;;;;;;5075526;28;20497;-70
2022/01/03 09:22:42;;;;;;;11.73;3.53;;;9.80;99.90;;;;;;5076181;28;20784;-70
2022/01/03 09:30:39;;;;;;;9.83;2.63;;;9.70;99.90;;;;;;5077400;28;20429;-70
2022/01/03 09:33:06;;;;;;;9.50;2.97;;;9.60;99.90;;;;;;5076667;28;20458;-70
2022/01/03 09:35:33;;;;;;;10.17;3.30;;;9.50;99.90;;;;;;5076024;28;20462;-69
2022/01/03 09:38:00;;;;;;;11.90;3.70;;;9.50;99.90;;;;;;5074972;28;20481;-70
2022/01/03 09:40:27;;;;;;;8.83;3.43;;;9.50;99.90;;;;;;5075011;28;20805;-70
2022/01/03 09:42:58;;;;;;;12.53;2.97;;;9.50;99.90;;;;;;5074493;28;20918;-69
2022/01/03 09:45:28;;;;;;;12.47;3.17;;;9.60;99.90;;;;;;5074759;28;20445;-69
2022/01/03 09:47:56;;;;;;;10.40;2.90;;;9.60;99.90;;;;;;5073984;28;20489;-70
2022/01/03 09:50:24;;;;;;;10.10;2.47;;;9.70;99.90;;;;;;5074628;28;20458;-70
2022/01/03 09:52:51;;;;;;;8.13;2.33;;;9.80;99.90;;;;;;5078287;28;20464;-69
2022/01/03 09:55:20;;;;;;;10.60;2.70;;;9.80;99.90;;;;;;5078717;28;20458;-71
2022/01/03 09:57:47;;;;;;;7.20;2.37;;;9.90;99.90;;;;;;5078482;28;20482;-69
2022/01/03 10:00:18;;;;;;;6.33;1.80;;;10.00;99.90;;;;;;5078359;28;20458;-69
2022/01/03 10:02:46;;;;;;;8.93;1.93;;;10.00;99.90;;;;;;5077988;28;20450;-70
2022/01/03 10:05:13;;;;;;;15.80;2.50;;;10.10;99.90;;;;;;5078728;28;20486;-69
2022/01/03 10:07:41;;;;;;;4.20;2.30;;;10.10;99.90;;;;;;5077997;28;20493;-69
2022/01/03 10:10:08;;;;;;;5.57;2.20;;;10.00;99.90;;;;;;5078807;28;20538;-70
2022/01/03 10:12:37;;;;;;;6.20;2.60;;;10.10;99.90;;;;;;5078373;28;20462;-69
2022/01/03 10:15:05;;;;;;;9.70;2.60;;;10.10;99.90;;;;;;5079365;28;20490;-69
2022/01/03 10:17:39;;;;;;;8.80;2.40;;;10.00;99.90;;;;;;5079741;28;20528;-69
2022/01/03 10:20:10;;;;;;;9.43;3.10;;;10.00;99.90;;;;;;5079925;28;20453;-71
2022/01/03 10:22:37;;;;;;;10.27;3.57;;;9.90;99.90;;;;;;5079286;28;20818;-70
2022/01/03 10:25:17;;;;;;;15.60;3.77;;;10.00;99.90;;;;;;5078777;28;20454;-69
2022/01/03 10:27:47;;;;;;;6.93;2.37;;;10.00;99.90;;;;;;5078436;28;20434;-70
2022/01/03 10:30:17;;;;;;;7.00;3.00;;;10.00;99.90;;;;;;5078682;28;20949;-69
2022/01/03 10:32:51;;;;;;;10.87;3.20;;;10.10;99.90;;;;;;5078193;28;20473;-70
2022/01/03 10:35:19;;;;;;;9.27;2.60;;;10.20;99.90;;;;;;5078075;28;20438;-69
2022/01/03 10:37:46;;;;;;;7.27;2.00;;;10.20;99.90;;;;;;5077399;28;20481;-69
2022/01/03 10:40:17;;;;;;;6.77;3.17;;;10.30;99.90;;;;;;5077690;28;20878;-69
2022/01/03 10:42:44;;;;;;;10.93;2.73;;;10.40;99.90;;;;;;5077705;28;20464;-70
2022/01/03 10:45:10;;;;;;;10.23;3.17;;;10.50;99.90;;;;;;5077633;28;20454;-69
2022/01/03 10:47:39;;;;;;;9.23;3.47;;;10.60;99.90;;;;;;5076972;28;20482;-70
2022/01/03 10:50:16;;;;;;;15.70;4.00;;;10.70;99.90;;;;;;5077969;28;20570;-69
2022/01/03 10:52:42;;;;;;;14.27;3.93;;;10.70;99.90;;;;;;5077241;28;20454;-70
2022/01/03 10:55:12;;;;;;;11.20;4.10;;;10.70;99.90;;;;;;5077167;28;20462;-70
2022/01/03 10:57:54;;;;;;;8.97;3.50;;;10.60;99.90;;;;;;5077031;28;20571;-69
2022/01/03 11:00:25;;;;;;;13.50;3.70;;;10.60;99.90;;;;;;5076865;28;20871;-69
2022/01/03 11:03:18;;;;;;;12.30;4.70;;;10.60;99.90;;;;;;5075998;28;20442;-69
2022/01/03 11:05:50;;;;;;;9.73;3.30;;;10.60;99.90;;;;;;5077191;28;20462;-69
2022/01/03 11:11:01;;;;;;;7.30;3.20;;;10.60;99.90;;;;;;5077175;28;20429;-71
2022/01/03 11:13:28;;;;;;;9.80;3.10;;;10.70;99.90;;;;;;5077214;28;20481;-71
2022/01/03 11:15:56;;;;;;;17.57;4.90;;;10.80;99.90;;;;;;5077266;28;20907;-70
2022/01/03 11:18:25;;;;;;;9.00;3.87;;;10.80;99.90;;;;;;5077287;28;20493;-69
2022/01/03 11:21:06;;;;;;;12.83;4.00;;;10.80;99.90;;;;;;5076844;28;20941;-70
2022/01/03 11:23:33;;;;;;;11.90;4.70;;;10.70;99.90;;;;;;5077161;28;20442;-70
2022/01/03 11:26:06;;;;;;;14.80;5.63;;;10.60;99.90;;;;;;5076682;28;20979;-70
2022/01/03 11:28:33;;;;;;;15.00;6.03;;;10.40;99.90;;;;;;5076674;28;20442;-70
2022/01/03 11:31:02;;;;;;;14.30;5.97;;;10.40;99.90;;;;;;5076630;28;21097;-69
2022/01/03 11:33:29;;;;;;;14.20;4.27;;;10.30;99.90;;;;;;5076736;28;20461;-69
2022/01/03 11:35:59;;;;;;;13.47;4.20;;;10.30;99.90;;;;;;5076162;28;20787;-70
2022/01/03 11:38:30;;;;;;;10.43;4.30;;;10.40;99.90;;;;;;5076101;28;20558;-70
2022/01/03 11:40:59;;;;;;;13.10;4.13;;;10.40;99.90;;;;;;5075728;28;20473;-68
2022/01/03 11:43:27;;;;;;;13.03;3.87;;;10.40;99.90;;;;;;5075722;28;20496;-70
2022/01/03 11:45:54;;;;;;;10.10;5.90;;;10.50;99.90;;;;;;5076300;28;20469;-69
2022/01/03 11:48:22;;;;;;;10.33;4.07;;;10.50;99.90;;;;;;5075867;28;20517;-69
2022/01/03 11:50:51;;;;;;;16.77;3.77;;;10.60;99.90;;;;;;5075549;28;20922;-70
2022/01/03 11:53:23;;;;;;;14.23;3.80;;;10.70;99.90;;;;;;5076003;28;20458;-69
2022/01/03 11:55:52;;;;;;;12.20;4.00;;;10.80;99.90;;;;;;5075578;28;20446;-69
2022/01/03 11:58:46;;;;;;;15.33;4.80;;;10.80;99.90;;;;;;5076609;28;20494;-70
2022/01/03 12:03:58;;;;;;;5.73;3.37;;;11.10;99.90;;;;;;5076065;28;20512;-70
2022/01/03 12:06:29;;;;;;;9.97;3.73;;;11.10;99.90;;;;;;5075779;28;20577;-69
2022/01/03 12:08:59;;;;;;;9.87;3.57;;;11.20;99.90;;;;;;5075232;28;20453;-69
2022/01/03 12:11:30;;;;;;;10.33;3.90;;;11.20;99.90;;;;;;5075400;28;20442;-70
2022/01/03 12:14:00;;;;;;;11.83;3.30;;;11.10;99.90;;;;;;5075722;28;20465;-70
2022/01/03 12:16:48;;;;;;;11.83;4.03;;;11.20;99.90;;;;;;5076155;28;20864;-69
2022/01/03 12:19:28;;;;;;;11.20;3.70;;;11.10;99.90;;;;;;5075946;28;20926;-69
2022/01/03 12:22:12;;;;;;;9.37;3.83;;;11.00;99.90;;;;;;5076138;28;20438;-70
2022/01/03 12:24:52;;;;;;;10.10;4.17;;;11.10;99.90;;;;;;5076244;28;20458;-71
2022/01/03 12:27:40;;;;;;;14.13;4.20;;;11.10;99.90;;;;;;5076162;28;20434;-73
2022/01/03 12:30:28;;;;;;;15.67;4.70;;;11.20;99.90;;;;;;5076180;28;20439;-69
2022/01/03 12:33:17;;;;;;;8.80;4.70;;;11.20;99.90;;;;;;5075858;28;20445;-71
2022/01/03 12:35:46;;;;;;;8.77;4.50;;;11.20;99.90;;;;;;5072445;28;20604;-69
2022/01/03 12:38:28;;;;;;;14.60;5.17;;;11.30;99.90;;;;;;5076345;28;20482;-71
2022/01/03 12:41:02;;;;;;;11.53;3.30;;;11.40;99.90;;;;;;5076898;28;20443;-69
2022/01/03 12:43:46;;;;;;;15.43;4.13;;;11.40;99.90;;;;;;5077558;28;20442;-71
2022/01/03 12:46:24;;;;;;;8.93;3.57;;;11.40;99.90;;;;;;5077861;28;20458;-72
2022/01/03 12:48:56;;;;;;;9.87;3.70;;;11.40;99.90;;;;;;5077306;28;20938;-72
2022/01/03 12:51:33;;;;;;;10.47;3.90;;;11.30;99.90;;;;;;5076413;28;20435;-71
2022/01/03 12:54:03;;;;;;;11.80;3.90;;;11.40;99.90;;;;;;5076250;28;20419;-70
2022/01/03 12:56:32;;;;;;;10.60;3.37;;;11.40;99.90;;;;;;5075926;28;20458;-70
2022/01/03 12:59:10;;;;;;;11.33;3.63;;;11.40;99.90;;;;;;5075682;28;20488;-70
2022/01/03 13:01:38;;;;;;;8.97;3.60;;;11.50;99.90;;;;;;5076635;28;20443;-69
2022/01/03 13:04:29;;;;;;;7.47;3.13;;;12.10;99.90;;;;;;5076217;28;20469;-70
2022/01/03 13:07:03;;;;;;;9.50;3.23;;;12.60;99.90;;;;;;5059909;28;20501;-70
2022/01/03 13:09:30;;;;;;;8.47;2.90;;;12.40;99.90;;;;;;5075204;28;20454;-71
2022/01/03 13:12:03;;;;;;;13.83;4.20;;;12.10;99.90;;;;;;5075492;28;20450;-70
2022/01/03 13:14:29;;;;;;;11.63;3.27;;;11.90;99.90;;;;;;5075787;28;20438;-70
2022/01/03 13:16:58;;;;;;;12.47;3.67;;;11.70;99.90;;;;;;5074923;28;21021;-70
2022/01/03 13:19:27;;;;;;;6.50;2.70;;;11.70;99.90;;;;;;5075062;28;20909;-70